sensor_id;sensor_type;location;lat;lon;timestamp;pressure;altitude;pressure_sealevel;temperature;humidity
6899;BME280;3488;42.616;23.350;2023-01-25T00:00:31;62105.59;;;1.04;100.00
6899;BME280;3488;42.616;23.350;2023-01-25T00:02:58;62109.72;;;1.08;100.00
6899;BME280;3488;42.616;23.350;2023-01-25T00:05:25;62131.63;;;1.25;100.00
6899;BME280;3488;42.616;23.350;2023-01-25T00:07:52;62131.72;;;1.28;100.00
6899;BME280;3488;42.616;23.350;2023-01-25T00:10:20;62106.50;;;1.00;100.00
6899;BME280;3488;42.616;23.350;2023-01-25T00:12:47;62098.41;;;0.97;100.00
6899;BME280;3488;42.616;23.350;2023-01-25T00:15:14;62086.19;;;0.88;100.00
6899;BME280;3488;42.616;23.350;2023-01-25T00:17:43;62082.41;;;0.77;100.00
6899;BME280;3488;42.616;23.350;2023-01-25T00:20:10;62103.53;;;1.02;100.00
6899;BME280;3488;42.616;23.350;2023-01-25T00:22:38;62123.50;;;1.19;100.00
6899;BME280;3488;42.616;23.350;2023-01-25T00:25:05;62119.97;;;1.18;100.00
6899;BME280;3488;42.616;23.350;2023-01-25T00:27:32;62123.09;;;1.24;100.00
6899;BME280;3488;42.616;23.350;2023-01-25T00:29:59;62119.34;;;1.13;100.00
6899;BME280;3488;42.616;23.350;2023-01-25T00:32:52;62109.72;;;1.08;100.00
6899;BME280;3488;42.616;23.350;2023-01-25T00:35:20;62116.25;;;1.10;100.00
6899;BME280;3488;42.616;23.350;2023-01-25T00:37:47;62119.91;;;1.16;100.00
6899;BME280;3488;42.616;23.350;2023-01-25T00:40:19;62111.69;;;1.08;100.00
6899;BME280;3488;42.616;23.350;2023-01-25T00:42:46;62121.44;;;1.17;100.00
6899;BME280;3488;42.616;23.350;2023-01-25T00:45:13;62124.06;;;1.23;100.00
6899;BME280;3488;42.616;23.350;2023-01-25T00:47:40;62114.84;;;1.13;100.00
6899;BME280;3488;42.616;23.350;2023-01-25T00:50:10;62129.13;;;1.25;100.00
6899;BME280;3488;42.616;23.350;2023-01-25T00:52:39;62121.44;;;1.17;100.00
6899;BME280;3488;42.616;23.350;2023-01-25T00:55:07;62118.88;;;1.15;100.00
6899;BME280;3488;42.616;23.350;2023-01-25T00:57:37;62135.22;;;1.29;100.00
6899;BME280;3488;42.616;23.350;2023-01-25T01:00:06;62137.34;;;1.33;100.00
6899;BME280;3488;42.616;23.350;2023-01-25T01:02:33;62136.84;;;1.33;100.00
6899;BME280;3488;42.616;23.350;2023-01-25T01:05:00;62140.44;;;1.36;100.00
6899;BME280;3488;42.616;23.350;2023-01-25T01:07:29;62147.09;;;1.43;100.00
6899;BME280;3488;42.616;23.350;2023-01-25T01:09:56;62149.72;;;1.48;100.00
6899;BME280;3488;42.616;23.350;2023-01-25T01:12:24;62140.47;;;1.39;100.00
6899;BME280;3488;42.616;23.350;2023-01-25T01:14:51;62117.78;;;1.11;100.00
6899;BME280;3488;42.616;23.350;2023-01-25T01:17:19;62096.31;;;0.93;100.00
6899;BME280;3488;42.616;23.350;2023-01-25T01:19:46;62084.13;;;0.86;100.00
6899;BME280;3488;42.616;23.350;2023-01-25T01:22:14;62079.97;;;0.79;100.00
6899;BME280;3488;42.616;23.350;2023-01-25T01:24:42;62103.03;;;1.02;100.00
6899;BME280;3488;42.616;23.350;2023-01-25T01:27:10;62115.34;;;1.14;100.00
6899;BME280;3488;42.616;23.350;2023-01-25T01:29:37;62124.00;;;1.20;100.00
6899;BME280;3488;42.616;23.350;2023-01-25T01:32:04;62107.13;;;1.06;100.00
6899;BME280;3488;42.616;23.350;2023-01-25T01:34:31;62118.44;;;1.17;100.00
6899;BME280;3488;42.616;23.350;2023-01-25T01:36:58;62112.38;;;1.16;100.00
6899;BME280;3488;42.616;23.350;2023-01-25T01:39:26;62103.03;;;1.02;100.00
6899;BME280;3488;42.616;23.350;2023-01-25T01:41:54;62086.63;;;0.86;100.00
6899;BME280;3488;42.616;23.350;2023-01-25T01:44:42;62082.47;;;0.79;100.00
6899;BME280;3488;42.616;23.350;2023-01-25T01:47:14;62107.59;;;1.04;100.00
6899;BME280;3488;42.616;23.350;2023-01-25T01:49:51;62116.38;;;1.15;100.00
6899;BME280;3488;42.616;23.350;2023-01-25T01:52:22;62120.34;;;1.14;100.00
6899;BME280;3488;42.616;23.350;2023-01-25T01:54:54;62129.66;;;1.26;100.00
6899;BME280;3488;42.616;23.350;2023-01-25T01:57:28;62136.38;;;1.35;100.00
6899;BME280;3488;42.616;23.350;2023-01-25T02:00:02;62133.75;;;1.30;100.00
6899;BME280;3488;42.616;23.350;2023-01-25T02:02:29;62136.84;;;1.33;100.00
6899;BME280;3488;42.616;23.350;2023-01-25T02:04:59;62143.06;;;1.41;100.00
6899;BME280;3488;42.616;23.350;2023-01-25T02:07:30;62141.97;;;1.38;100.00
6899;BME280;3488;42.616;23.350;2023-01-25T02:09:58;62137.91;;;1.36;100.00
6899;BME280;3488;42.616;23.350;2023-01-25T02:12:27;62147.63;;;1.43;100.00
6899;BME280;3488;42.616;23.350;2023-01-25T02:14:55;62145.56;;;1.41;100.00
6899;BME280;3488;42.616;23.350;2023-01-25T02:17:25;62147.66;;;1.46;100.00
6899;BME280;3488;42.616;23.350;2023-01-25T02:19:57;62141.00;;;1.39;100.00
6899;BME280;3488;42.616;23.350;2023-01-25T02:22:31;62149.59;;;1.43;100.00
6899;BME280;3488;42.616;23.350;2023-01-25T02:25:06;62137.34;;;1.33;100.00
6899;BME280;3488;42.616;23.350;2023-01-25T02:27:37;62128.22;;;1.29;100.00
6899;BME280;3488;42.616;23.350;2023-01-25T02:30:06;62135.91;;;1.37;100.00
6899;BME280;3488;42.616;23.350;2023-01-25T02:32:33;62137.81;;;1.31;100.00
6899;BME280;3488;42.616;23.350;2023-01-25T02:35:00;62129.19;;;1.28;100.00
6899;BME280;3488;42.616;23.350;2023-01-25T02:37:28;62130.75;;;1.29;100.00
6899;BME280;3488;42.616;23.350;2023-01-25T02:39:55;62131.75;;;1.30;100.00
6899;BME280;3488;42.616;23.350;2023-01-25T02:42:23;62128.16;;;1.27;100.00
6899;BME280;3488;42.616;23.350;2023-01-25T02:44:50;62113.34;;;1.14;100.00
6899;BME280;3488;42.616;23.350;2023-01-25T02:47:18;62109.19;;;1.08;100.00
6899;BME280;3488;42.616;23.350;2023-01-25T02:49:45;62091.75;;;0.91;100.00
6899;BME280;3488;42.616;23.350;2023-01-25T02:52:12;62082.53;;;0.82;100.00
6899;BME280;3488;42.616;23.350;2023-01-25T02:54:40;62055.34;;;0.55;100.00
6899;BME280;3488;42.616;23.350;2023-01-25T02:57:07;62074.22;;;0.69;100.00
6899;BME280;3488;42.616;23.350;2023-01-25T02:59:36;62062.06;;;0.64;100.00
6899;BME280;3488;42.616;23.350;2023-01-25T03:02:02;62075.34;;;0.75;100.00
6899;BME280;3488;42.616;23.350;2023-01-25T03:04:29;62074.25;;;0.71;100.00
6899;BME280;3488;42.616;23.350;2023-01-25T03:06:56;62069.19;;;0.69;100.00
6899;BME280;3488;42.616;23.350;2023-01-25T03:09:23;62072.19;;;0.69;100.00
6899;BME280;3488;42.616;23.350;2023-01-25T03:11:51;62067.66;;;0.67;100.00
6899;BME280;3488;42.616;23.350;2023-01-25T03:14:18;62086.63;;;0.86;100.00
6899;BME280;3488;42.616;23.350;2023-01-25T03:16:46;62072.19;;;0.69;100.00
6899;BME280;3488;42.616;23.350;2023-01-25T03:19:13;62072.72;;;0.70;100.00
6899;BME280;3488;42.616;23.350;2023-01-25T03:21:40;62051.69;;;0.49;100.00
6899;BME280;3488;42.616;23.350;2023-01-25T03:24:09;62046.63;;;0.47;100.00
6899;BME280;3488;42.616;23.350;2023-01-25T03:26:36;62049.19;;;0.49;100.00
6899;BME280;3488;42.616;23.350;2023-01-25T03:29:17;62054.78;;;0.52;100.00
6899;BME280;3488;42.616;23.350;2023-01-25T03:31:46;62058.44;;;0.58;100.00
6899;BME280;3488;42.616;23.350;2023-01-25T03:34:13;62053.25;;;0.51;100.00
6899;BME280;3488;42.616;23.350;2023-01-25T03:36:40;62059.84;;;0.55;100.00
6899;BME280;3488;42.616;23.350;2023-01-25T03:39:08;62021.47;;;0.20;100.00
6899;BME280;3488;42.616;23.350;2023-01-25T03:41:34;62051.78;;;0.52;100.00
6899;BME280;3488;42.616;23.350;2023-01-25T03:44:01;62071.22;;;0.71;100.00
6899;BME280;3488;42.616;23.350;2023-01-25T03:46:29;62061.44;;;0.59;100.00
6899;BME280;3488;42.616;23.350;2023-01-25T03:48:57;62044.63;;;0.47;100.00
6899;BME280;3488;42.616;23.350;2023-01-25T03:51:24;62069.13;;;0.66;100.00
6899;BME280;3488;42.616;23.350;2023-01-25T03:53:51;62073.81;;;0.73;100.00
6899;BME280;3488;42.616;23.350;2023-01-25T03:56:18;62065.03;;;0.62;100.00
6899;BME280;3488;42.616;23.350;2023-01-25T03:58:46;62065.03;;;0.62;100.00
6899;BME280;3488;42.616;23.350;2023-01-25T04:01:13;62070.72;;;0.70;100.00
6899;BME280;3488;42.616;23.350;2023-01-25T04:03:39;62080.88;;;0.75;100.00
6899;BME280;3488;42.616;23.350;2023-01-25T04:06:08;62082.00;;;0.81;100.00
6899;BME280;3488;42.616;23.350;2023-01-25T04:08:36;62095.34;;;0.94;100.00
6899;BME280;3488;42.616;23.350;2023-01-25T04:11:04;62090.22;;;0.89;100.00
6899;BME280;3488;42.616;23.350;2023-01-25T04:13:32;62085.53;;;0.82;100.00
6899;BME280;3488;42.616;23.350;2023-01-25T04:16:01;62049.72;;;0.50;100.00
6899;BME280;3488;42.616;23.350;2023-01-25T04:18:28;62055.34;;;0.55;100.00
6899;BME280;3488;42.616;23.350;2023-01-25T04:20:56;62076.81;;;0.74;100.00
6899;BME280;3488;42.616;23.350;2023-01-25T04:23:25;62067.59;;;0.65;100.00
6899;BME280;3488;42.616;23.350;2023-01-25T04:25:52;62077.91;;;0.77;100.00
6899;BME280;3488;42.616;23.350;2023-01-25T04:28:20;62079.91;;;0.77;100.00
6899;BME280;3488;42.616;23.350;2023-01-25T04:30:47;62051.81;;;0.54;100.00
6899;BME280;3488;42.616;23.350;2023-01-25T04:33:15;62053.31;;;0.53;100.00
6899;BME280;3488;42.616;23.350;2023-01-25T04:35:42;62061.50;;;0.61;100.00
6899;BME280;3488;42.616;23.350;2023-01-25T04:38:10;62050.72;;;0.51;100.00
6899;BME280;3488;42.616;23.350;2023-01-25T04:40:39;62071.22;;;0.71;100.00
6899;BME280;3488;42.616;23.350;2023-01-25T04:43:07;62067.66;;;0.67;100.00
6899;BME280;3488;42.616;23.350;2023-01-25T04:45:34;62067.13;;;0.67;100.00
6899;BME280;3488;42.616;23.350;2023-01-25T04:48:03;62047.66;;;0.48;100.00
6899;BME280;3488;42.616;23.350;2023-01-25T04:50:34;62057.84;;;0.55;100.00
6899;BME280;3488;42.616;23.350;2023-01-25T04:53:02;62060.94;;;0.58;100.00
6899;BME280;3488;42.616;23.350;2023-01-25T04:55:29;62049.72;;;0.50;100.00
6899;BME280;3488;42.616;23.350;2023-01-25T04:57:58;62060.53;;;0.63;100.00
6899;BME280;3488;42.616;23.350;2023-01-25T05:00:28;62046.63;;;0.47;100.00
6899;BME280;3488;42.616;23.350;2023-01-25T05:02:55;62044.53;;;0.42;100.00
6899;BME280;3488;42.616;23.350;2023-01-25T05:05:22;62052.84;;;0.55;100.00
6899;BME280;3488;42.616;23.350;2023-01-25T05:07:49;62051.13;;;0.46;100.00
6899;BME280;3488;42.616;23.350;2023-01-25T05:10:16;62037.47;;;0.40;100.00
6899;BME280;3488;42.616;23.350;2023-01-25T05:12:44;62035.28;;;0.33;100.00
6899;BME280;3488;42.616;23.350;2023-01-25T05:15:13;62038.53;;;0.44;100.00
6899;BME280;3488;42.616;23.350;2023-01-25T05:17:41;62059.41;;;0.57;100.00
6899;BME280;3488;42.616;23.350;2023-01-25T05:20:09;62072.19;;;0.69;100.00
6899;BME280;3488;42.616;23.350;2023-01-25T05:22:36;62052.78;;;0.53;100.00
6899;BME280;3488;42.616;23.350;2023-01-25T05:25:04;62062.59;;;0.65;100.00
6899;BME280;3488;42.616;23.350;2023-01-25T05:27:52;62039.91;;;0.38;100.00
6899;BME280;3488;42.616;23.350;2023-01-25T05:30:19;62044.00;;;0.42;100.00
6899;BME280;3488;42.616;23.350;2023-01-25T05:32:47;62045.03;;;0.43;100.00
6899;BME280;3488;42.616;23.350;2023-01-25T05:35:15;62033.41;;;0.39;100.00
6899;BME280;3488;42.616;23.350;2023-01-25T05:37:42;62046.00;;;0.41;100.00
6899;BME280;3488;42.616;23.350;2023-01-25T05:40:10;62039.47;;;0.40;100.00
6899;BME280;3488;42.616;23.350;2023-01-25T05:42:37;62032.34;;;0.35;100.00
6899;BME280;3488;42.616;23.350;2023-01-25T05:45:05;62046.06;;;0.44;100.00
6899;BME280;3488;42.616;23.350;2023-01-25T05:47:34;62060.47;;;0.60;100.00
6899;BME280;3488;42.616;23.350;2023-01-25T05:50:01;62071.22;;;0.71;100.00
6899;BME280;3488;42.616;23.350;2023-01-25T05:52:28;62075.28;;;0.72;100.00
6899;BME280;3488;42.616;23.350;2023-01-25T05:54:55;62074.81;;;0.74;100.00
6899;BME280;3488;42.616;23.350;2023-01-25T05:57:23;62081.38;;;0.76;100.00
6899;BME280;3488;42.616;23.350;2023-01-25T05:59:50;62095.84;;;0.95;100.00
6899;BME280;3488;42.616;23.350;2023-01-25T06:02:17;62105.59;;;1.04;100.00
6899;BME280;3488;42.616;23.350;2023-01-25T06:04:46;62107.13;;;1.06;100.00
6899;BME280;3488;42.616;23.350;2023-01-25T06:07:13;62094.31;;;0.93;100.00
6899;BME280;3488;42.616;23.350;2023-01-25T06:09:40;62108.63;;;1.05;100.00
6899;BME280;3488;42.616;23.350;2023-01-25T06:12:07;62094.88;;;0.96;100.00
6899;BME280;3488;42.616;23.350;2023-01-25T06:14:35;62109.19;;;1.08;100.00
6899;BME280;3488;42.616;23.350;2023-01-25T06:17:02;62083.53;;;0.83;100.00
6899;BME280;3488;42.616;23.350;2023-01-25T06:19:28;62098.81;;;0.93;100.00
6899;BME280;3488;42.616;23.350;2023-01-25T06:21:57;62105.53;;;1.02;100.00
6899;BME280;3488;42.616;23.350;2023-01-25T06:24:24;62113.22;;;1.09;100.00
6899;BME280;3488;42.616;23.350;2023-01-25T06:26:51;62115.22;;;1.09;100.00
6899;BME280;3488;42.616;23.350;2023-01-25T06:29:18;62095.84;;;0.95;100.00
6899;BME280;3488;42.616;23.350;2023-01-25T06:31:45;62071.19;;;0.68;100.00
6899;BME280;3488;42.616;23.350;2023-01-25T06:34:12;62084.63;;;0.86;100.00
6899;BME280;3488;42.616;23.350;2023-01-25T06:36:39;62081.03;;;0.83;100.00
6899;BME280;3488;42.616;23.350;2023-01-25T06:39:08;62090.66;;;0.87;100.00
6899;BME280;3488;42.616;23.350;2023-01-25T06:41:35;62090.66;;;0.87;100.00
6899;BME280;3488;42.616;23.350;2023-01-25T06:44:02;62083.03;;;0.82;100.00
6899;BME280;3488;42.616;23.350;2023-01-25T06:46:31;62085.47;;;0.80;100.00
6899;BME280;3488;42.616;23.350;2023-01-25T06:48:58;62084.50;;;0.81;100.00
6899;BME280;3488;42.616;23.350;2023-01-25T06:51:26;62090.22;;;0.89;100.00
6899;BME280;3488;42.616;23.350;2023-01-25T06:53:53;62104.97;;;0.99;100.00
6899;BME280;3488;42.616;23.350;2023-01-25T06:56:21;62115.22;;;1.09;100.00
6899;BME280;3488;42.616;23.350;2023-01-25T06:58:49;62107.66;;;1.06;100.00
6899;BME280;3488;42.616;23.350;2023-01-25T07:01:17;62101.91;;;0.96;100.00
6899;BME280;3488;42.616;23.350;2023-01-25T07:03:47;62094.88;;;0.96;100.00
6899;BME280;3488;42.616;23.350;2023-01-25T07:06:15;62085.09;;;0.84;100.00
6899;BME280;3488;42.616;23.350;2023-01-25T07:08:42;62073.72;;;0.71;100.00
6899;BME280;3488;42.616;23.350;2023-01-25T07:11:10;62078.41;;;0.78;100.00
6899;BME280;3488;42.616;23.350;2023-01-25T07:13:41;62067.66;;;0.67;100.00
6899;BME280;3488;42.616;23.350;2023-01-25T07:16:11;62061.50;;;0.61;100.00
6899;BME280;3488;42.616;23.350;2023-01-25T07:18:40;62085.47;;;0.80;100.00
6899;BME280;3488;42.616;23.350;2023-01-25T07:21:09;62057.47;;;0.60;100.00
6899;BME280;3488;42.616;23.350;2023-01-25T07:23:37;62067.13;;;0.67;100.00
6899;BME280;3488;42.616;23.350;2023-01-25T07:26:05;62077.47;;;0.79;100.00
6899;BME280;3488;42.616;23.350;2023-01-25T07:28:32;62072.78;;;0.72;100.00
6899;BME280;3488;42.616;23.350;2023-01-25T07:31:05;62076.38;;;0.76;100.00
6899;BME280;3488;42.616;23.350;2023-01-25T07:33:32;62103.03;;;1.02;100.00
6899;BME280;3488;42.616;23.350;2023-01-25T07:36:02;62115.81;;;1.12;100.00
6899;BME280;3488;42.616;23.350;2023-01-25T07:38:29;62121.44;;;1.17;100.00
6899;BME280;3488;42.616;23.350;2023-01-25T07:40:56;62134.25;;;1.30;100.00
6899;BME280;3488;42.616;23.350;2023-01-25T07:43:24;62122.47;;;1.18;100.00
6899;BME280;3488;42.616;23.350;2023-01-25T07:45:51;62090.78;;;0.92;100.00
6899;BME280;3488;42.616;23.350;2023-01-25T07:48:20;62091.22;;;0.90;100.00
6899;BME280;3488;42.616;23.350;2023-01-25T07:50:48;62108.75;;;1.10;100.00
6899;BME280;3488;42.616;23.350;2023-01-25T07:53:35;62127.53;;;1.21;100.00
6899;BME280;3488;42.616;23.350;2023-01-25T07:56:01;62107.66;;;1.06;100.00
6899;BME280;3488;42.616;23.350;2023-01-25T07:58:28;62115.34;;;1.14;100.00
6899;BME280;3488;42.616;23.350;2023-01-25T08:00:55;62127.66;;;1.26;100.00
6899;BME280;3488;42.616;23.350;2023-01-25T08:03:24;62137.84;;;1.34;100.00
6899;BME280;3488;42.616;23.350;2023-01-25T08:05:51;62154.78;;;1.50;100.00
6899;BME280;3488;42.616;23.350;2023-01-25T08:08:19;62148.22;;;1.49;100.00
6899;BME280;3488;42.616;23.350;2023-01-25T08:10:46;62136.31;;;1.32;100.00
6899;BME280;3488;42.616;23.350;2023-01-25T08:13:13;62120.97;;;1.19;100.00
6899;BME280;3488;42.616;23.350;2023-01-25T08:15:41;62141.44;;;1.37;100.00
6899;BME280;3488;42.616;23.350;2023-01-25T08:18:07;62120.97;;;1.19;100.00
6899;BME280;3488;42.616;23.350;2023-01-25T08:20:36;62110.16;;;1.06;100.00
6899;BME280;3488;42.616;23.350;2023-01-25T08:23:04;62101.59;;;1.05;100.00
6899;BME280;3488;42.616;23.350;2023-01-25T08:25:31;62115.34;;;1.14;100.00
6899;BME280;3488;42.616;23.350;2023-01-25T08:27:58;62120.47;;;1.19;100.00
6899;BME280;3488;42.616;23.350;2023-01-25T08:30:25;62125.09;;;1.24;100.00
6899;BME280;3488;42.616;23.350;2023-01-25T08:32:52;62136.88;;;1.35;100.00
6899;BME280;3488;42.616;23.350;2023-01-25T08:35:19;62144.13;;;1.45;100.00
6899;BME280;3488;42.616;23.350;2023-01-25T08:37:49;62168.69;;;1.66;100.00
6899;BME280;3488;42.616;23.350;2023-01-25T08:40:16;62162.53;;;1.60;100.00
6899;BME280;3488;42.616;23.350;2023-01-25T08:42:46;62169.16;;;1.64;100.00
6899;BME280;3488;42.616;23.350;2023-01-25T08:45:13;62147.63;;;1.43;100.00
6899;BME280;3488;42.616;23.350;2023-01-25T08:47:40;62145.50;;;1.39;100.00
6899;BME280;3488;42.616;23.350;2023-01-25T08:50:08;62149.66;;;1.45;100.00
6899;BME280;3488;42.616;23.350;2023-01-25T08:52:36;62144.53;;;1.40;100.00
6899;BME280;3488;42.616;23.350;2023-01-25T08:55:05;62153.72;;;1.47;100.00
6899;BME280;3488;42.616;23.350;2023-01-25T08:57:32;62174.28;;;1.69;100.00
6899;BME280;3488;42.616;23.350;2023-01-25T08:59:59;62181.00;;;1.78;100.00
6899;BME280;3488;42.616;23.350;2023-01-25T09:02:26;62176.34;;;1.71;100.00
6899;BME280;3488;42.616;23.350;2023-01-25T09:04:53;62143.06;;;1.41;100.00
6899;BME280;3488;42.616;23.350;2023-01-25T09:07:21;62171.78;;;1.69;100.00
6899;BME280;3488;42.616;23.350;2023-01-25T09:09:48;62167.13;;;1.62;100.00
6899;BME280;3488;42.616;23.350;2023-01-25T09:12:17;62187.13;;;1.82;100.00
6899;BME280;3488;42.616;23.350;2023-01-25T09:14:44;62184.59;;;1.82;100.00
6899;BME280;3488;42.616;23.350;2023-01-25T09:17:12;62191.28;;;1.88;100.00
6899;BME280;3488;42.616;23.350;2023-01-25T09:19:39;62190.19;;;1.85;100.00
6899;BME280;3488;42.616;23.350;2023-01-25T09:22:07;62192.75;;;1.87;100.00
6899;BME280;3488;42.616;23.350;2023-01-25T09:24:34;62168.69;;;1.66;100.00
6899;BME280;3488;42.616;23.350;2023-01-25T09:27:01;62193.41;;;1.93;100.00
6899;BME280;3488;42.616;23.350;2023-01-25T09:29:29;62207.66;;;2.02;100.00
6899;BME280;3488;42.616;23.350;2023-01-25T09:31:57;62227.75;;;2.24;100.00
6899;BME280;3488;42.616;23.350;2023-01-25T09:34:24;62245.19;;;2.41;100.00
6899;BME280;3488;42.616;23.350;2023-01-25T09:36:51;62244.22;;;2.43;100.00
6899;BME280;3488;42.616;23.350;2023-01-25T09:39:19;62223.56;;;2.17;100.00
6899;BME280;3488;42.616;23.350;2023-01-25T09:44:54;62211.75;;;2.06;100.00
6899;BME280;3488;42.616;23.350;2023-01-25T09:47:28;62209.13;;;2.01;100.00
6899;BME280;3488;42.616;23.350;2023-01-25T09:50:12;62200.00;;;1.97;100.00
6899;BME280;3488;42.616;23.350;2023-01-25T09:52:58;62224.53;;;2.16;100.00
6899;BME280;3488;42.616;23.350;2023-01-25T09:55:31;62212.78;;;2.07;100.00
6899;BME280;3488;42.616;23.350;2023-01-25T09:58:00;62204.56;;;1.99;100.00
6899;BME280;3488;42.616;23.350;2023-01-25T10:00:32;62225.56;;;2.17;100.00
6899;BME280;3488;42.616;23.350;2023-01-25T10:03:04;62230.28;;;2.26;100.00
6899;BME280;3488;42.616;23.350;2023-01-25T10:05:43;62234.41;;;2.30;100.00
6899;BME280;3488;42.616;23.350;2023-01-25T10:08:15;62243.13;;;2.39;100.00
6899;BME280;3488;42.616;23.350;2023-01-25T10:10:47;62242.69;;;2.41;100.00
6899;BME280;3488;42.616;23.350;2023-01-25T10:13:18;62259.13;;;2.57;100.00
6899;BME280;3488;42.616;23.350;2023-01-25T10:15:50;62271.28;;;2.62;100.00
6899;BME280;3488;42.616;23.350;2023-01-25T10:18:25;62265.22;;;2.61;100.00
6899;BME280;3488;42.616;23.350;2023-01-25T10:20:56;62270.88;;;2.66;100.00
6899;BME280;3488;42.616;23.350;2023-01-25T10:23:48;62258.44;;;2.49;100.00
6899;BME280;3488;42.616;23.350;2023-01-25T10:26:22;62270.88;;;2.66;100.00
6899;BME280;3488;42.616;23.350;2023-01-25T10:28:56;62245.13;;;2.38;100.00
6899;BME280;3488;42.616;23.350;2023-01-25T10:31:34;62273.84;;;2.64;100.00
6899;BME280;3488;42.616;23.350;2023-01-25T10:34:13;62283.19;;;2.78;100.00
6899;BME280;3488;42.616;23.350;2023-01-25T10:36:48;62302.09;;;2.92;100.00
6899;BME280;3488;42.616;23.350;2023-01-25T10:39:18;62300.16;;;2.95;100.00
6899;BME280;3488;42.616;23.350;2023-01-25T10:41:49;62319.16;;;3.13;100.00
6899;BME280;3488;42.616;23.350;2023-01-25T10:44:16;62268.25;;;2.61;100.00
6899;BME280;3488;42.616;23.350;2023-01-25T10:46:56;62300.16;;;2.95;100.00
6899;BME280;3488;42.616;23.350;2023-01-25T10:49:34;62312.50;;;3.07;100.00
6899;BME280;3488;42.616;23.350;2023-01-25T10:52:17;62318.13;;;3.12;100.00
6899;BME280;3488;42.616;23.350;2023-01-25T10:54:47;62320.16;;;3.12;100.00
6899;BME280;3488;42.616;23.350;2023-01-25T10:57:19;62307.34;;;3.02;100.00
6899;BME280;3488;42.616;23.350;2023-01-25T10:59:50;62334.06;;;3.28;100.00
6899;BME280;3488;42.616;23.350;2023-01-25T11:02:49;62333.56;;;3.27;100.00
6899;BME280;3488;42.616;23.350;2023-01-25T11:05:29;62350.53;;;3.44;100.00
6899;BME280;3488;42.616;23.350;2023-01-25T11:08:13;62364.41;;;3.58;100.00
6899;BME280;3488;42.616;23.350;2023-01-25T11:10:44;62368.47;;;3.59;100.00
6899;BME280;3488;42.616;23.350;2023-01-25T11:13:20;62374.69;;;3.68;100.00
6899;BME280;3488;42.616;23.350;2023-01-25T11:15:52;62378.88;;;3.74;100.00
6899;BME280;3488;42.616;23.350;2023-01-25T11:18:23;62344.88;;;3.38;100.00
6899;BME280;3488;42.616;23.350;2023-01-25T11:21:12;62343.75;;;3.32;100.00
6899;BME280;3488;42.616;23.350;2023-01-25T11:23:43;62329.41;;;3.21;100.00
6899;BME280;3488;42.616;23.350;2023-01-25T11:26:30;62356.06;;;3.44;100.00
6899;BME280;3488;42.616;23.350;2023-01-25T11:29:14;62341.75;;;3.33;100.00
6899;BME280;3488;42.616;23.350;2023-01-25T11:31:43;62353.50;;;3.42;100.00
6899;BME280;3488;42.616;23.350;2023-01-25T11:34:15;62370.06;;;3.63;100.00
6899;BME280;3488;42.616;23.350;2023-01-25T11:37:00;62378.13;;;3.64;100.00
6899;BME280;3488;42.616;23.350;2023-01-25T11:39:44;62375.19;;;3.68;100.00
6899;BME280;3488;42.616;23.350;2023-01-25T11:42:25;62337.22;;;3.33;100.00
6899;BME280;3488;42.616;23.350;2023-01-25T11:45:31;62325.81;;;3.17;100.00
6899;BME280;3488;42.616;23.350;2023-01-25T11:48:18;62342.25;;;3.33;100.00
6899;BME280;3488;42.616;23.350;2023-01-25T11:50:56;62320.72;;;3.15;100.00
6899;BME280;3488;42.616;23.350;2023-01-25T11:53:39;62329.41;;;3.21;100.00
6899;BME280;3488;42.616;23.350;2023-01-25T11:56:18;62322.72;;;3.14;100.00
6899;BME280;3488;42.616;23.350;2023-01-25T11:59:07;62316.56;;;3.08;100.00
6899;BME280;3488;42.616;23.350;2023-01-25T12:01:43;62309.91;;;3.04;100.00
6899;BME280;3488;42.616;23.350;2023-01-25T12:04:40;62321.72;;;3.16;100.00
6899;BME280;3488;42.616;23.350;2023-01-25T12:07:21;62332.41;;;3.21;100.00
6899;BME280;3488;42.616;23.350;2023-01-25T12:10:03;62343.28;;;3.34;100.00
6899;BME280;3488;42.616;23.350;2023-01-25T12:12:44;62334.53;;;3.26;100.00
6899;BME280;3488;42.616;23.350;2023-01-25T12:15:30;62328.94;;;3.23;100.00
6899;BME280;3488;42.616;23.350;2023-01-25T12:18:20;62326.88;;;3.21;100.00
6899;BME280;3488;42.616;23.350;2023-01-25T12:21:02;62308.31;;;3.00;100.00
6899;BME280;3488;42.616;23.350;2023-01-25T12:23:59;62284.75;;;2.80;100.00
6899;BME280;3488;42.616;23.350;2023-01-25T12:26:35;62284.63;;;2.75;100.00
6899;BME280;3488;42.616;23.350;2023-01-25T12:29:22;62279.03;;;2.72;100.00
6899;BME280;3488;42.616;23.350;2023-01-25T12:31:53;62296.56;;;2.91;100.00
6899;BME280;3488;42.616;23.350;2023-01-25T12:34:26;62293.44;;;2.86;100.00
6899;BME280;3488;42.616;23.350;2023-01-25T12:36:57;62302.72;;;2.97;100.00
6899;BME280;3488;42.616;23.350;2023-01-25T12:39:31;62300.66;;;2.95;100.00
6899;BME280;3488;42.616;23.350;2023-01-25T12:42:04;62306.78;;;2.99;100.00
6899;BME280;3488;42.616;23.350;2023-01-25T12:44:36;62306.84;;;3.01;100.00
6899;BME280;3488;42.616;23.350;2023-01-25T12:47:10;62300.09;;;2.92;100.00
6899;BME280;3488;42.616;23.350;2023-01-25T12:49:43;62278.03;;;2.71;100.00
6899;BME280;3488;42.616;23.350;2023-01-25T12:52:22;62280.13;;;2.75;100.00
6899;BME280;3488;42.616;23.350;2023-01-25T12:55:00;62267.72;;;2.61;100.00
6899;BME280;3488;42.616;23.350;2023-01-25T12:57:32;62279.56;;;2.72;100.00
6899;BME280;3488;42.616;23.350;2023-01-25T13:00:06;62242.06;;;2.35;100.00
6899;BME280;3488;42.616;23.350;2023-01-25T13:02:52;62287.25;;;2.80;100.00
6899;BME280;3488;42.616;23.350;2023-01-25T13:05:27;62290.41;;;2.85;100.00
6899;BME280;3488;42.616;23.350;2023-01-25T13:08:05;62280.53;;;2.71;100.00
6899;BME280;3488;42.616;23.350;2023-01-25T13:10:41;62235.94;;;2.32;100.00
6899;BME280;3488;42.616;23.350;2023-01-25T13:13:22;62241.09;;;2.37;100.00
6899;BME280;3488;42.616;23.350;2023-01-25T13:15:50;62244.16;;;2.40;100.00
6899;BME280;3488;42.616;23.350;2023-01-25T13:18:49;62253.94;;;2.50;100.00
6899;BME280;3488;42.616;23.350;2023-01-25T13:21:39;62267.78;;;2.63;100.00
6899;BME280;3488;42.616;23.350;2023-01-25T13:24:27;62267.69;;;2.58;100.00
6899;BME280;3488;42.616;23.350;2023-01-25T13:27:02;62274.00;;;2.72;100.00
6899;BME280;3488;42.616;23.350;2023-01-25T13:29:53;62281.09;;;2.74;100.00
6899;BME280;3488;42.616;23.350;2023-01-25T13:32:53;62285.16;;;2.75;100.00